createdAt,value
2023-01-20T00:02:11.286Z,33.30
2023-01-20T00:07:14.106Z,32.30
2023-01-20T00:12:16.696Z,29.40
2023-01-20T00:17:19.175Z,32.72
2023-01-20T00:22:22.497Z,31.90
2023-01-20T00:27:25.118Z,31.38
2023-01-20T00:32:27.808Z,31.20
2023-01-20T00:37:30.326Z,31.95
2023-01-20T00:42:32.918Z,30.90
2023-01-20T00:47:35.675Z,28.98
2023-01-20T00:52:38.227Z,29.02
2023-01-20T00:57:41.014Z,31.38
2023-01-20T01:02:43.553Z,31.23
2023-01-20T01:07:46.148Z,30.73
2023-01-20T01:12:48.661Z,27.73
2023-01-20T01:17:52.451Z,28.83
2023-01-20T01:22:56.306Z,27.67
2023-01-20T01:27:58.837Z,29.38
2023-01-20T01:33:01.547Z,24.52
2023-01-20T01:38:04.095Z,29.17
2023-01-20T01:43:23.372Z,27.05
2023-01-20T01:48:40.341Z,26.30
2023-01-20T01:53:54.033Z,25.00
2023-01-20T01:59:00.143Z,26.75
2023-01-20T02:04:11.531Z,25.13
2023-01-20T02:09:14.489Z,28.08
2023-01-20T02:14:19.382Z,24.85
2023-01-20T02:19:37.031Z,25.63
2023-01-20T02:25:13.443Z,23.00
2023-01-20T02:30:25.157Z,25.38
2023-01-20T02:35:45.991Z,26.23
2023-01-20T02:40:48.473Z,21.48
2023-01-20T02:46:06.306Z,25.75
2023-01-20T02:51:18.356Z,24.63
2023-01-20T02:56:37.180Z,25.15
2023-01-20T03:02:02.680Z,24.52
2023-01-20T03:07:07.318Z,25.05
2023-01-20T03:12:17.048Z,24.27
2023-01-20T03:17:20.840Z,23.92
2023-01-20T03:22:23.721Z,24.25
2023-01-20T03:27:26.918Z,23.85
2023-01-20T03:32:30.036Z,23.02
2023-01-20T03:37:32.698Z,24.35
2023-01-20T03:42:46.282Z,22.35
2023-01-20T03:47:58.748Z,22.42
2023-01-20T03:53:15.396Z,23.23
2023-01-20T03:58:40.962Z,23.48
2023-01-20T04:03:46.168Z,22.88
2023-01-20T04:08:57.068Z,23.25
2023-01-20T04:14:00.045Z,22.47
2023-01-20T04:19:02.797Z,22.67
2023-01-20T04:24:34.800Z,21.77
2023-01-20T04:29:37.509Z,21.42
2023-01-20T04:34:40.258Z,22.08
2023-01-20T04:39:43.038Z,22.92
2023-01-20T04:44:46.313Z,23.50
2023-01-20T04:49:49.003Z,22.67
2023-01-20T04:54:51.588Z,22.20
2023-01-20T04:59:54.141Z,23.35
2023-01-20T05:04:56.771Z,20.95
2023-01-20T05:09:59.437Z,22.17
2023-01-20T05:15:02.201Z,22.15
2023-01-20T05:20:05.979Z,22.25
2023-01-20T05:25:09.177Z,21.27
2023-01-20T05:30:12.090Z,22.35
2023-01-20T05:35:14.995Z,21.52
2023-01-20T05:40:18.461Z,22.67
2023-01-20T05:45:21.031Z,22.05
2023-01-20T05:50:24.262Z,21.45
2023-01-20T05:55:27.185Z,21.83
2023-01-20T06:00:30.429Z,22.25
2023-01-20T06:05:33.497Z,22.23
2023-01-20T06:10:36.055Z,21.23
2023-01-20T06:15:38.598Z,22.48
2023-01-20T06:20:41.170Z,22.75
2023-01-20T06:25:44.111Z,21.88
2023-01-20T06:30:46.648Z,21.45
2023-01-20T06:35:49.359Z,22.20
2023-01-20T06:40:59.677Z,20.35
2023-01-20T06:46:04.283Z,20.25
2023-01-20T06:51:17.073Z,20.85
2023-01-20T06:56:20.126Z,20.77
2023-01-20T07:01:31.417Z,22.20
2023-01-20T07:06:38.591Z,22.15
2023-01-20T07:11:41.526Z,22.55
2023-01-20T07:16:44.234Z,23.10
2023-01-20T07:21:46.922Z,21.05
2023-01-20T07:26:52.762Z,24.13
2023-01-20T07:31:55.561Z,23.23
2023-01-20T07:36:58.165Z,22.27
2023-01-20T07:42:00.668Z,22.05
2023-01-20T07:47:03.332Z,19.33
2023-01-20T07:52:05.885Z,21.50
2023-01-20T07:57:09.325Z,23.05
2023-01-20T08:02:11.890Z,23.98
2023-01-20T08:07:14.417Z,23.05
2023-01-20T08:12:17.090Z,22.92
2023-01-20T08:17:19.708Z,23.38
2023-01-20T08:22:22.277Z,22.67
2023-01-20T08:27:24.849Z,22.48
2023-01-20T08:32:27.447Z,23.35
2023-01-20T08:37:30.022Z,24.05
2023-01-20T08:42:32.615Z,24.35
2023-01-20T08:47:44.519Z,22.33
2023-01-20T08:52:47.494Z,22.08
2023-01-20T08:57:50.047Z,23.67
2023-01-20T09:02:52.929Z,22.77
2023-01-20T09:07:55.554Z,23.50
2023-01-20T09:12:58.122Z,21.80
2023-01-20T09:18:00.753Z,21.10
2023-01-20T09:23:03.474Z,24.05
2023-01-20T09:28:06.714Z,21.75
2023-01-20T09:33:13.995Z,22.15
2023-01-20T09:38:35.430Z,21.80
2023-01-20T09:43:57.066Z,15.88
2023-01-20T09:49:39.144Z,21.95
2023-01-20T09:54:50.496Z,22.75
2023-01-20T10:00:09.526Z,22.63
2023-01-20T10:05:16.817Z,21.35
2023-01-20T10:10:32.891Z,20.80
2023-01-20T10:15:37.779Z,21.42
2023-01-20T10:20:49.304Z,22.60
2023-01-20T10:26:00.805Z,21.13
2023-01-20T10:31:05.410Z,15.52
2023-01-20T10:36:21.443Z,20.48
2023-01-20T10:41:32.366Z,21.50
2023-01-20T10:46:47.055Z,21.17
2023-01-20T10:52:09.992Z,20.50
2023-01-20T10:57:15.432Z,19.80
2023-01-20T11:02:30.699Z,19.92
2023-01-20T11:07:34.278Z,21.02
2023-01-20T11:12:40.884Z,21.75
2023-01-20T11:17:43.572Z,20.38
2023-01-20T11:22:48.951Z,19.70
2023-01-20T11:27:52.391Z,20.20
2023-01-20T11:33:10.242Z,20.27
2023-01-20T11:38:31.161Z,18.58
2023-01-20T11:43:38.157Z,18.92
2023-01-20T11:48:40.839Z,19.92
2023-01-20T11:53:45.745Z,19.60
2023-01-20T11:58:59.855Z,18.85
2023-01-20T12:04:17.687Z,19.00
2023-01-20T12:09:25.843Z,19.42
2023-01-20T12:14:42.757Z,18.60
2023-01-20T12:19:51.325Z,19.17
2023-01-20T12:25:07.907Z,18.70
2023-01-20T12:30:43.325Z,17.80
2023-01-20T12:36:14.695Z,19.83
2023-01-20T12:41:45.451Z,17.63
2023-01-20T12:46:51.929Z,18.63
2023-01-20T12:52:31.235Z,18.08
2023-01-20T12:58:00.118Z,17.63
2023-01-20T13:03:27.542Z,18.13
2023-01-20T13:08:39.926Z,18.63
2023-01-20T13:13:57.348Z,17.90
2023-01-20T13:19:14.595Z,17.30
2023-01-20T13:24:24.410Z,17.00
2023-01-20T13:29:36.026Z,17.73
2023-01-20T13:34:40.149Z,17.00
2023-01-20T13:39:45.651Z,20.40
2023-01-20T13:45:21.030Z,18.27
2023-01-20T13:50:26.514Z,16.92
2023-01-20T13:55:40.903Z,16.50
2023-01-20T14:00:44.568Z,15.13
2023-01-20T14:05:55.617Z,15.60
2023-01-20T14:11:41.174Z,15.43
2023-01-20T14:16:44.525Z,16.08
2023-01-20T14:21:53.238Z,16.08
2023-01-20T14:27:27.168Z,20.20
2023-01-20T14:32:33.993Z,17.55
2023-01-20T14:37:38.616Z,16.10
2023-01-20T14:42:41.189Z,19.92
2023-01-20T14:47:43.783Z,18.80
2023-01-20T14:52:46.561Z,20.77
2023-01-20T14:57:49.196Z,21.42
2023-01-20T15:03:10.174Z,21.17
2023-01-20T15:13:31.211Z,16.85
2023-01-20T15:18:34.100Z,19.17
2023-01-20T15:23:38.405Z,22.23
2023-01-20T15:28:44.932Z,16.23
2023-01-20T15:33:47.751Z,16.38
2023-01-20T15:38:50.841Z,15.63
2023-01-20T15:43:53.420Z,16.27
2023-01-20T15:48:56.168Z,15.93
2023-01-20T15:53:59.100Z,15.55
2023-01-20T15:59:02.788Z,14.30
2023-01-20T16:04:05.483Z,14.55
2023-01-20T16:09:30.513Z,13.93
2023-01-20T16:14:33.560Z,14.35
2023-01-20T16:19:36.500Z,14.73
2023-01-20T16:24:39.851Z,15.77
2023-01-20T16:29:42.511Z,14.07
2023-01-20T16:34:46.179Z,14.00
2023-01-20T16:39:48.779Z,13.65
2023-01-20T16:44:52.796Z,13.38
2023-01-20T16:49:55.345Z,14.13
2023-01-20T16:54:58.040Z,13.77
2023-01-20T17:00:00.649Z,14.07
2023-01-20T17:05:03.360Z,14.00
2023-01-20T17:10:06.570Z,15.20
2023-01-20T17:15:09.997Z,15.20
2023-01-20T17:20:12.764Z,14.80
2023-01-20T17:25:17.933Z,15.95
2023-01-20T17:30:20.739Z,15.00
2023-01-20T17:35:23.367Z,16.05
2023-01-20T17:40:25.999Z,15.80
2023-01-20T17:45:30.726Z,15.93
2023-01-20T17:50:39.794Z,14.75
2023-01-20T17:55:43.235Z,15.38
2023-01-20T18:00:45.872Z,16.08
2023-01-20T18:05:48.449Z,15.50
2023-01-20T18:10:50.987Z,15.73
2023-01-20T18:15:53.658Z,15.65
2023-01-20T18:20:56.229Z,16.73
2023-01-20T18:25:58.859Z,17.25
2023-01-20T18:31:08.506Z,16.30
2023-01-20T18:36:14.787Z,18.35
2023-01-20T18:41:17.693Z,17.35
2023-01-20T18:46:20.554Z,17.20
2023-01-20T18:51:25.962Z,15.82
2023-01-20T18:56:29.974Z,16.45
2023-01-20T19:01:36.213Z,16.50
2023-01-20T19:06:42.034Z,20.48
2023-01-20T19:11:44.638Z,16.42
2023-01-20T19:16:49.515Z,17.33
2023-01-20T19:21:52.693Z,16.83
2023-01-20T19:26:55.368Z,17.80
2023-01-20T19:31:58.011Z,17.55
2023-01-20T19:37:00.760Z,18.65
2023-01-20T19:42:03.397Z,18.10
2023-01-20T19:47:05.945Z,18.50
2023-01-20T19:52:08.496Z,17.92
2023-01-20T19:57:11.083Z,17.90
2023-01-20T20:02:13.646Z,17.40
2023-01-20T20:07:16.220Z,18.88
2023-01-20T20:12:18.799Z,18.25
2023-01-20T20:17:21.448Z,18.90
2023-01-20T20:22:24.158Z,19.13
2023-01-20T20:27:34.386Z,18.02
2023-01-20T20:32:37.088Z,18.80
2023-01-20T20:37:39.871Z,19.05
2023-01-20T20:42:43.139Z,19.60
2023-01-20T20:47:45.711Z,19.02
2023-01-20T20:52:48.309Z,19.05
2023-01-20T20:57:51.171Z,18.27
2023-01-20T21:02:55.389Z,19.35
2023-01-20T21:07:58.015Z,19.73
2023-01-20T21:13:00.569Z,18.50
2023-01-20T21:18:04.139Z,20.08
2023-01-20T21:23:06.751Z,19.80
2023-01-20T21:28:10.034Z,21.17
2023-01-20T21:33:17.695Z,19.42
2023-01-20T21:38:20.354Z,20.13
2023-01-20T21:43:41.325Z,19.58
2023-01-20T21:49:02.501Z,15.27
2023-01-20T21:54:05.133Z,15.97
2023-01-20T21:59:07.962Z,19.52
2023-01-20T22:04:10.818Z,20.45
2023-01-20T22:09:13.467Z,20.40
2023-01-20T22:14:16.089Z,20.35
2023-01-20T22:19:18.649Z,19.90
2023-01-20T22:24:21.562Z,20.45
2023-01-20T22:29:24.688Z,18.75
2023-01-20T22:34:29.233Z,19.20
2023-01-20T22:39:31.791Z,20.08
2023-01-20T22:44:34.301Z,19.27
2023-01-20T22:49:36.957Z,19.63
2023-01-20T22:54:39.474Z,20.80
2023-01-20T22:59:42.174Z,20.85
2023-01-20T23:04:44.781Z,19.95
2023-01-20T23:09:47.345Z,19.10
2023-01-20T23:14:59.069Z,18.80
2023-01-20T23:20:01.634Z,17.90
2023-01-20T23:25:08.564Z,19.52
2023-01-20T23:30:11.562Z,19.00
2023-01-20T23:35:14.291Z,18.23
2023-01-20T23:40:18.577Z,16.63
2023-01-20T23:45:21.391Z,16.90
2023-01-20T23:50:23.957Z,16.08
2023-01-20T23:55:26.528Z,15.82
